sensor_id;sensor_type;location;lat;lon;timestamp;P1;durP1;ratioP1;P2;durP2;ratioP2
13222;SDS011;6676;45.192;5.722;2022-10-16T00:02:19;3.58;;;2.25;;
13222;SDS011;6676;45.192;5.722;2022-10-16T00:05:10;3.45;;;1.90;;
13222;SDS011;6676;45.192;5.722;2022-10-16T00:08:02;6.75;;;2.37;;
13222;SDS011;6676;45.192;5.722;2022-10-16T00:10:57;4.53;;;2.08;;
13222;SDS011;6676;45.192;5.722;2022-10-16T00:13:50;3.60;;;2.17;;
13222;SDS011;6676;45.192;5.722;2022-10-16T00:16:44;3.37;;;1.90;;
13222;SDS011;6676;45.192;5.722;2022-10-16T00:19:35;3.77;;;2.00;;
13222;SDS011;6676;45.192;5.722;2022-10-16T00:22:26;4.15;;;2.10;;
13222;SDS011;6676;45.192;5.722;2022-10-16T00:25:18;4.05;;;1.70;;
13222;SDS011;6676;45.192;5.722;2022-10-16T00:28:09;4.92;;;2.25;;
13222;SDS011;6676;45.192;5.722;2022-10-16T00:31:03;2.87;;;1.90;;
13222;SDS011;6676;45.192;5.722;2022-10-16T00:33:55;4.70;;;2.50;;
13222;SDS011;6676;45.192;5.722;2022-10-16T00:36:47;4.12;;;2.52;;
13222;SDS011;6676;45.192;5.722;2022-10-16T00:39:38;3.62;;;2.00;;
13222;SDS011;6676;45.192;5.722;2022-10-16T00:42:21;3.17;;;2.00;;
13222;SDS011;6676;45.192;5.722;2022-10-16T00:45:13;4.37;;;1.87;;
13222;SDS011;6676;45.192;5.722;2022-10-16T00:48:06;3.65;;;2.05;;
13222;SDS011;6676;45.192;5.722;2022-10-16T00:51:01;3.77;;;1.90;;
13222;SDS011;6676;45.192;5.722;2022-10-16T00:53:53;4.40;;;1.67;;
13222;SDS011;6676;45.192;5.722;2022-10-16T00:56:46;3.08;;;1.82;;
13222;SDS011;6676;45.192;5.722;2022-10-16T00:59:39;2.00;;;1.60;;
13222;SDS011;6676;45.192;5.722;2022-10-16T01:02:32;5.10;;;1.80;;
13222;SDS011;6676;45.192;5.722;2022-10-16T01:05:12;2.55;;;1.52;;
13222;SDS011;6676;45.192;5.722;2022-10-16T01:08:04;3.20;;;1.55;;
13222;SDS011;6676;45.192;5.722;2022-10-16T01:11:00;4.55;;;1.77;;
13222;SDS011;6676;45.192;5.722;2022-10-16T01:13:54;3.35;;;2.10;;
13222;SDS011;6676;45.192;5.722;2022-10-16T01:16:49;2.08;;;1.60;;
13222;SDS011;6676;45.192;5.722;2022-10-16T01:22:43;6.33;;;2.10;;
13222;SDS011;6676;45.192;5.722;2022-10-16T01:25:52;3.35;;;1.72;;
13222;SDS011;6676;45.192;5.722;2022-10-16T01:29:12;6.45;;;1.80;;
13222;SDS011;6676;45.192;5.722;2022-10-16T01:32:07;7.50;;;1.87;;
13222;SDS011;6676;45.192;5.722;2022-10-16T01:35:02;6.03;;;2.52;;
13222;SDS011;6676;45.192;5.722;2022-10-16T01:37:57;3.42;;;1.87;;
13222;SDS011;6676;45.192;5.722;2022-10-16T01:40:54;6.50;;;3.22;;
13222;SDS011;6676;45.192;5.722;2022-10-16T01:43:48;4.65;;;2.90;;
13222;SDS011;6676;45.192;5.722;2022-10-16T01:46:42;3.87;;;2.85;;
13222;SDS011;6676;45.192;5.722;2022-10-16T01:49:36;6.45;;;2.50;;
13222;SDS011;6676;45.192;5.722;2022-10-16T01:52:30;4.87;;;2.60;;
13222;SDS011;6676;45.192;5.722;2022-10-16T01:55:25;5.90;;;2.77;;
13222;SDS011;6676;45.192;5.722;2022-10-16T01:58:07;7.15;;;2.80;;
13222;SDS011;6676;45.192;5.722;2022-10-16T02:01:01;4.72;;;2.70;;
13222;SDS011;6676;45.192;5.722;2022-10-16T02:03:55;4.15;;;2.70;;
13222;SDS011;6676;45.192;5.722;2022-10-16T02:06:49;5.33;;;2.62;;
13222;SDS011;6676;45.192;5.722;2022-10-16T02:09:42;5.10;;;2.37;;
13222;SDS011;6676;45.192;5.722;2022-10-16T02:12:33;4.37;;;2.42;;
13222;SDS011;6676;45.192;5.722;2022-10-16T02:15:28;4.10;;;2.70;;
13222;SDS011;6676;45.192;5.722;2022-10-16T02:18:19;2.72;;;2.27;;
13222;SDS011;6676;45.192;5.722;2022-10-16T02:21:12;3.58;;;2.47;;
13222;SDS011;6676;45.192;5.722;2022-10-16T02:24:08;4.20;;;2.58;;
13222;SDS011;6676;45.192;5.722;2022-10-16T02:27:05;6.60;;;2.27;;
13222;SDS011;6676;45.192;5.722;2022-10-16T02:30:02;3.95;;;2.42;;
13222;SDS011;6676;45.192;5.722;2022-10-16T02:32:56;4.37;;;2.40;;
13222;SDS011;6676;45.192;5.722;2022-10-16T02:35:49;3.50;;;2.22;;
13222;SDS011;6676;45.192;5.722;2022-10-16T02:38:43;3.08;;;1.82;;
13222;SDS011;6676;45.192;5.722;2022-10-16T02:41:35;2.72;;;1.92;;
13222;SDS011;6676;45.192;5.722;2022-10-16T02:44:27;4.47;;;2.05;;
13222;SDS011;6676;45.192;5.722;2022-10-16T02:47:23;2.80;;;1.92;;
13222;SDS011;6676;45.192;5.722;2022-10-16T02:50:14;5.03;;;2.22;;
13222;SDS011;6676;45.192;5.722;2022-10-16T02:53:06;3.02;;;2.10;;
13222;SDS011;6676;45.192;5.722;2022-10-16T02:55:57;3.72;;;2.12;;
13222;SDS011;6676;45.192;5.722;2022-10-16T02:58:49;2.90;;;2.30;;
13222;SDS011;6676;45.192;5.722;2022-10-16T03:01:40;5.35;;;2.20;;
13222;SDS011;6676;45.192;5.722;2022-10-16T03:04:32;3.90;;;2.10;;
13222;SDS011;6676;45.192;5.722;2022-10-16T03:07:24;2.62;;;1.87;;
13222;SDS011;6676;45.192;5.722;2022-10-16T03:10:16;4.87;;;1.90;;
13222;SDS011;6676;45.192;5.722;2022-10-16T03:13:07;4.45;;;2.10;;
13222;SDS011;6676;45.192;5.722;2022-10-16T03:15:58;3.95;;;1.60;;
13222;SDS011;6676;45.192;5.722;2022-10-16T03:18:50;4.83;;;1.90;;
13222;SDS011;6676;45.192;5.722;2022-10-16T03:21:41;5.97;;;1.72;;
13222;SDS011;6676;45.192;5.722;2022-10-16T03:24:35;3.80;;;1.82;;
13222;SDS011;6676;45.192;5.722;2022-10-16T03:27:27;3.47;;;1.70;;
13222;SDS011;6676;45.192;5.722;2022-10-16T03:30:19;3.27;;;1.60;;
13222;SDS011;6676;45.192;5.722;2022-10-16T03:33:10;5.28;;;1.57;;
13222;SDS011;6676;45.192;5.722;2022-10-16T03:36:02;4.70;;;1.80;;
13222;SDS011;6676;45.192;5.722;2022-10-16T03:38:53;3.42;;;1.65;;
13222;SDS011;6676;45.192;5.722;2022-10-16T03:41:44;7.85;;;1.67;;
13222;SDS011;6676;45.192;5.722;2022-10-16T03:44:36;6.40;;;1.87;;
13222;SDS011;6676;45.192;5.722;2022-10-16T03:47:28;3.40;;;1.75;;
13222;SDS011;6676;45.192;5.722;2022-10-16T03:50:21;5.30;;;2.20;;
13222;SDS011;6676;45.192;5.722;2022-10-16T03:53:13;4.35;;;2.33;;
13222;SDS011;6676;45.192;5.722;2022-10-16T03:56:05;2.98;;;1.92;;
13222;SDS011;6676;45.192;5.722;2022-10-16T03:58:56;2.42;;;1.85;;
13222;SDS011;6676;45.192;5.722;2022-10-16T04:01:48;5.67;;;1.87;;
13222;SDS011;6676;45.192;5.722;2022-10-16T04:04:39;4.20;;;2.00;;
13222;SDS011;6676;45.192;5.722;2022-10-16T04:07:31;4.35;;;1.70;;
13222;SDS011;6676;45.192;5.722;2022-10-16T04:10:22;3.95;;;1.85;;
13222;SDS011;6676;45.192;5.722;2022-10-16T04:13:13;6.03;;;1.98;;
13222;SDS011;6676;45.192;5.722;2022-10-16T04:16:05;2.58;;;1.60;;
13222;SDS011;6676;45.192;5.722;2022-10-16T04:18:57;3.72;;;1.90;;
13222;SDS011;6676;45.192;5.722;2022-10-16T04:21:49;4.53;;;2.10;;
13222;SDS011;6676;45.192;5.722;2022-10-16T04:24:40;3.35;;;1.60;;
13222;SDS011;6676;45.192;5.722;2022-10-16T04:27:31;3.65;;;1.40;;
13222;SDS011;6676;45.192;5.722;2022-10-16T04:30:23;4.25;;;1.60;;
13222;SDS011;6676;45.192;5.722;2022-10-16T04:33:16;5.25;;;2.25;;
13222;SDS011;6676;45.192;5.722;2022-10-16T04:36:08;2.72;;;1.50;;
13222;SDS011;6676;45.192;5.722;2022-10-16T04:38:59;5.65;;;2.00;;
13222;SDS011;6676;45.192;5.722;2022-10-16T04:41:51;6.03;;;1.55;;
13222;SDS011;6676;45.192;5.722;2022-10-16T04:44:43;2.20;;;1.40;;
13222;SDS011;6676;45.192;5.722;2022-10-16T04:47:34;2.52;;;1.55;;
13222;SDS011;6676;45.192;5.722;2022-10-16T04:50:26;2.98;;;1.65;;
13222;SDS011;6676;45.192;5.722;2022-10-16T04:53:27;2.83;;;2.00;;
13222;SDS011;6676;45.192;5.722;2022-10-16T04:56:18;6.17;;;2.58;;
13222;SDS011;6676;45.192;5.722;2022-10-16T04:59:10;5.78;;;1.62;;
13222;SDS011;6676;45.192;5.722;2022-10-16T05:02:02;3.27;;;1.70;;
13222;SDS011;6676;45.192;5.722;2022-10-16T05:04:53;2.52;;;1.80;;
13222;SDS011;6676;45.192;5.722;2022-10-16T05:07:45;3.40;;;1.67;;
13222;SDS011;6676;45.192;5.722;2022-10-16T05:10:37;2.90;;;1.70;;
13222;SDS011;6676;45.192;5.722;2022-10-16T05:13:30;4.70;;;1.90;;
13222;SDS011;6676;45.192;5.722;2022-10-16T05:16:22;3.15;;;1.55;;
13222;SDS011;6676;45.192;5.722;2022-10-16T05:19:14;5.67;;;1.92;;
13222;SDS011;6676;45.192;5.722;2022-10-16T05:22:06;3.33;;;1.60;;
13222;SDS011;6676;45.192;5.722;2022-10-16T05:24:58;3.55;;;1.92;;
13222;SDS011;6676;45.192;5.722;2022-10-16T05:27:49;3.75;;;1.70;;
13222;SDS011;6676;45.192;5.722;2022-10-16T05:30:42;4.40;;;2.10;;
13222;SDS011;6676;45.192;5.722;2022-10-16T05:33:34;3.12;;;2.05;;
13222;SDS011;6676;45.192;5.722;2022-10-16T05:36:26;2.62;;;1.50;;
13222;SDS011;6676;45.192;5.722;2022-10-16T05:39:18;7.53;;;1.50;;
13222;SDS011;6676;45.192;5.722;2022-10-16T05:42:09;3.77;;;1.50;;
13222;SDS011;6676;45.192;5.722;2022-10-16T05:45:00;5.75;;;1.40;;
13222;SDS011;6676;45.192;5.722;2022-10-16T05:47:52;3.30;;;1.95;;
13222;SDS011;6676;45.192;5.722;2022-10-16T05:50:43;6.80;;;5.58;;
13222;SDS011;6676;45.192;5.722;2022-10-16T05:53:37;11.28;;;8.35;;
13222;SDS011;6676;45.192;5.722;2022-10-16T05:56:29;9.38;;;7.67;;
13222;SDS011;6676;45.192;5.722;2022-10-16T05:59:21;9.38;;;8.58;;
13222;SDS011;6676;45.192;5.722;2022-10-16T06:02:12;9.58;;;7.92;;
13222;SDS011;6676;45.192;5.722;2022-10-16T06:05:05;6.17;;;5.58;;
13222;SDS011;6676;45.192;5.722;2022-10-16T06:07:57;9.15;;;4.90;;
13222;SDS011;6676;45.192;5.722;2022-10-16T06:10:48;5.12;;;3.70;;
13222;SDS011;6676;45.192;5.722;2022-10-16T06:13:50;4.15;;;3.30;;
13222;SDS011;6676;45.192;5.722;2022-10-16T06:16:45;3.92;;;3.15;;
13222;SDS011;6676;45.192;5.722;2022-10-16T06:19:36;4.03;;;3.10;;
13222;SDS011;6676;45.192;5.722;2022-10-16T06:22:28;3.10;;;2.75;;
13222;SDS011;6676;45.192;5.722;2022-10-16T06:25:20;4.53;;;3.20;;
13222;SDS011;6676;45.192;5.722;2022-10-16T06:28:11;4.25;;;3.30;;
13222;SDS011;6676;45.192;5.722;2022-10-16T06:31:08;4.40;;;2.95;;
13222;SDS011;6676;45.192;5.722;2022-10-16T06:34:00;6.17;;;2.42;;
13222;SDS011;6676;45.192;5.722;2022-10-16T06:36:54;5.12;;;2.42;;
13222;SDS011;6676;45.192;5.722;2022-10-16T06:39:45;4.22;;;2.35;;
13222;SDS011;6676;45.192;5.722;2022-10-16T06:42:36;5.08;;;2.80;;
13222;SDS011;6676;45.192;5.722;2022-10-16T06:45:28;5.72;;;2.52;;
13222;SDS011;6676;45.192;5.722;2022-10-16T06:48:20;8.73;;;3.77;;
13222;SDS011;6676;45.192;5.722;2022-10-16T06:51:12;4.10;;;2.77;;
13222;SDS011;6676;45.192;5.722;2022-10-16T06:54:06;4.28;;;2.08;;
13222;SDS011;6676;45.192;5.722;2022-10-16T06:56:58;3.00;;;1.85;;
13222;SDS011;6676;45.192;5.722;2022-10-16T06:59:50;7.28;;;2.00;;
13222;SDS011;6676;45.192;5.722;2022-10-16T07:02:42;4.87;;;2.10;;
13222;SDS011;6676;45.192;5.722;2022-10-16T07:05:37;5.75;;;2.02;;
13222;SDS011;6676;45.192;5.722;2022-10-16T07:08:31;4.50;;;1.80;;
13222;SDS011;6676;45.192;5.722;2022-10-16T07:11:23;2.25;;;1.37;;
13222;SDS011;6676;45.192;5.722;2022-10-16T07:14:15;3.55;;;1.60;;
13222;SDS011;6676;45.192;5.722;2022-10-16T07:17:09;3.27;;;1.40;;
13222;SDS011;6676;45.192;5.722;2022-10-16T07:20:00;5.00;;;2.10;;
13222;SDS011;6676;45.192;5.722;2022-10-16T07:22:53;2.50;;;1.62;;
13222;SDS011;6676;45.192;5.722;2022-10-16T07:25:44;6.42;;;1.70;;
13222;SDS011;6676;45.192;5.722;2022-10-16T07:28:37;2.70;;;1.60;;
13222;SDS011;6676;45.192;5.722;2022-10-16T07:31:28;4.50;;;1.42;;
13222;SDS011;6676;45.192;5.722;2022-10-16T07:34:21;1.70;;;1.27;;
13222;SDS011;6676;45.192;5.722;2022-10-16T07:37:15;2.20;;;1.40;;
13222;SDS011;6676;45.192;5.722;2022-10-16T07:40:08;2.02;;;1.25;;
13222;SDS011;6676;45.192;5.722;2022-10-16T07:43:00;1.42;;;1.05;;
13222;SDS011;6676;45.192;5.722;2022-10-16T08:15:57;2.98;;;1.30;;
13222;SDS011;6676;45.192;5.722;2022-10-16T08:18:49;2.75;;;1.22;;
13222;SDS011;6676;45.192;5.722;2022-10-16T08:21:40;1.55;;;1.27;;
13222;SDS011;6676;45.192;5.722;2022-10-16T08:24:31;2.90;;;1.15;;
13222;SDS011;6676;45.192;5.722;2022-10-16T08:27:23;2.75;;;1.75;;
13222;SDS011;6676;45.192;5.722;2022-10-16T08:30:16;5.03;;;1.70;;
13222;SDS011;6676;45.192;5.722;2022-10-16T08:33:09;3.87;;;1.42;;
13222;SDS011;6676;45.192;5.722;2022-10-16T08:36:00;5.17;;;2.00;;
13222;SDS011;6676;45.192;5.722;2022-10-16T08:38:53;6.22;;;2.05;;
13222;SDS011;6676;45.192;5.722;2022-10-16T08:41:56;1.85;;;1.40;;
13222;SDS011;6676;45.192;5.722;2022-10-16T08:45:10;2.10;;;1.77;;
13222;SDS011;6676;45.192;5.722;2022-10-16T08:48:10;3.25;;;1.37;;
13222;SDS011;6676;45.192;5.722;2022-10-16T08:51:07;2.85;;;1.22;;
13222;SDS011;6676;45.192;5.722;2022-10-16T08:54:03;3.08;;;1.15;;
13222;SDS011;6676;45.192;5.722;2022-10-16T08:56:57;3.30;;;1.15;;
13222;SDS011;6676;45.192;5.722;2022-10-16T08:59:51;3.17;;;0.95;;
13222;SDS011;6676;45.192;5.722;2022-10-16T09:02:48;1.40;;;1.00;;
13222;SDS011;6676;45.192;5.722;2022-10-16T09:05:51;1.90;;;0.90;;
13222;SDS011;6676;45.192;5.722;2022-10-16T09:11:53;3.90;;;1.10;;
13222;SDS011;6676;45.192;5.722;2022-10-16T09:14:52;1.35;;;0.90;;
13222;SDS011;6676;45.192;5.722;2022-10-16T09:17:51;2.77;;;0.93;;
13222;SDS011;6676;45.192;5.722;2022-10-16T09:20:48;2.42;;;1.20;;
13222;SDS011;6676;45.192;5.722;2022-10-16T09:23:28;4.60;;;1.32;;
13222;SDS011;6676;45.192;5.722;2022-10-16T09:26:20;2.80;;;1.00;;
13222;SDS011;6676;45.192;5.722;2022-10-16T09:29:11;5.35;;;1.52;;
13222;SDS011;6676;45.192;5.722;2022-10-16T09:32:08;3.85;;;1.10;;
13222;SDS011;6676;45.192;5.722;2022-10-16T09:35:01;1.70;;;1.00;;
13222;SDS011;6676;45.192;5.722;2022-10-16T09:37:54;2.83;;;1.00;;
13222;SDS011;6676;45.192;5.722;2022-10-16T09:40:45;1.45;;;0.90;;
13222;SDS011;6676;45.192;5.722;2022-10-16T09:43:39;1.37;;;1.05;;
13222;SDS011;6676;45.192;5.722;2022-10-16T09:46:33;3.60;;;1.20;;
13222;SDS011;6676;45.192;5.722;2022-10-16T09:49:26;2.80;;;1.30;;
13222;SDS011;6676;45.192;5.722;2022-10-16T09:52:18;2.35;;;1.20;;
13222;SDS011;6676;45.192;5.722;2022-10-16T09:55:14;2.52;;;1.25;;
13222;SDS011;6676;45.192;5.722;2022-10-16T09:58:11;2.85;;;1.12;;
13222;SDS011;6676;45.192;5.722;2022-10-16T10:01:04;7.25;;;1.55;;
13222;SDS011;6676;45.192;5.722;2022-10-16T10:03:57;5.75;;;1.27;;
13222;SDS011;6676;45.192;5.722;2022-10-16T10:06:51;2.83;;;1.30;;
13222;SDS011;6676;45.192;5.722;2022-10-16T10:09:44;4.97;;;1.47;;
13222;SDS011;6676;45.192;5.722;2022-10-16T10:12:36;2.67;;;1.40;;
13222;SDS011;6676;45.192;5.722;2022-10-16T10:15:28;4.62;;;1.35;;
13222;SDS011;6676;45.192;5.722;2022-10-16T10:18:22;5.53;;;1.40;;
13222;SDS011;6676;45.192;5.722;2022-10-16T10:21:14;3.92;;;1.37;;
13222;SDS011;6676;45.192;5.722;2022-10-16T10:24:09;3.75;;;1.25;;
13222;SDS011;6676;45.192;5.722;2022-10-16T10:27:03;2.70;;;1.17;;
13222;SDS011;6676;45.192;5.722;2022-10-16T10:29:58;2.45;;;1.20;;
13222;SDS011;6676;45.192;5.722;2022-10-16T10:32:54;4.15;;;1.60;;
13222;SDS011;6676;45.192;5.722;2022-10-16T10:35:52;5.53;;;1.57;;
13222;SDS011;6676;45.192;5.722;2022-10-16T10:38:36;3.40;;;1.27;;
13222;SDS011;6676;45.192;5.722;2022-10-16T10:45:18;3.33;;;1.20;;
13222;SDS011;6676;45.192;5.722;2022-10-16T10:48:20;3.90;;;1.22;;
13222;SDS011;6676;45.192;5.722;2022-10-16T10:51:18;4.35;;;1.40;;
13222;SDS011;6676;45.192;5.722;2022-10-16T10:54:13;1.67;;;1.30;;
13222;SDS011;6676;45.192;5.722;2022-10-16T10:57:09;1.67;;;1.00;;
13222;SDS011;6676;45.192;5.722;2022-10-16T11:00:12;2.00;;;0.90;;
13222;SDS011;6676;45.192;5.722;2022-10-16T11:03:09;1.50;;;1.02;;
13222;SDS011;6676;45.192;5.722;2022-10-16T11:06:04;3.50;;;1.20;;
13222;SDS011;6676;45.192;5.722;2022-10-16T11:09:00;2.72;;;1.02;;
13222;SDS011;6676;45.192;5.722;2022-10-16T11:11:54;2.75;;;1.00;;
13222;SDS011;6676;45.192;5.722;2022-10-16T11:14:49;2.35;;;1.30;;
13222;SDS011;6676;45.192;5.722;2022-10-16T11:17:33;1.90;;;0.90;;
13222;SDS011;6676;45.192;5.722;2022-10-16T11:20:27;2.58;;;1.00;;
13222;SDS011;6676;45.192;5.722;2022-10-16T11:23:23;3.00;;;1.10;;
13222;SDS011;6676;45.192;5.722;2022-10-16T11:26:17;1.35;;;0.90;;
13222;SDS011;6676;45.192;5.722;2022-10-16T11:29:12;5.83;;;1.40;;
13222;SDS011;6676;45.192;5.722;2022-10-16T11:32:06;2.25;;;1.10;;
13222;SDS011;6676;45.192;5.722;2022-10-16T11:35:02;4.55;;;1.15;;
13222;SDS011;6676;45.192;5.722;2022-10-16T11:37:54;4.00;;;1.30;;
13222;SDS011;6676;45.192;5.722;2022-10-16T11:40:49;3.27;;;1.20;;
13222;SDS011;6676;45.192;5.722;2022-10-16T11:43:45;2.50;;;1.20;;
13222;SDS011;6676;45.192;5.722;2022-10-16T11:46:38;2.10;;;1.07;;
13222;SDS011;6676;45.192;5.722;2022-10-16T11:49:34;1.42;;;0.90;;
13222;SDS011;6676;45.192;5.722;2022-10-16T11:52:30;2.55;;;1.10;;
13222;SDS011;6676;45.192;5.722;2022-10-16T11:55:23;2.75;;;1.37;;
13222;SDS011;6676;45.192;5.722;2022-10-16T11:58:24;1.90;;;1.10;;
13222;SDS011;6676;45.192;5.722;2022-10-16T12:01:20;1.45;;;1.10;;
13222;SDS011;6676;45.192;5.722;2022-10-16T12:04:18;5.72;;;1.10;;
13222;SDS011;6676;45.192;5.722;2022-10-16T12:07:01;2.58;;;1.10;;
13222;SDS011;6676;45.192;5.722;2022-10-16T12:09:54;3.27;;;1.35;;
13222;SDS011;6676;45.192;5.722;2022-10-16T12:15:26;3.15;;;1.47;;
13222;SDS011;6676;45.192;5.722;2022-10-16T12:18:21;2.08;;;1.00;;
13222;SDS011;6676;45.192;5.722;2022-10-16T12:21:13;1.77;;;1.10;;
13222;SDS011;6676;45.192;5.722;2022-10-16T12:24:18;2.25;;;0.75;;
13222;SDS011;6676;45.192;5.722;2022-10-16T12:30:00;2.22;;;1.10;;
13222;SDS011;6676;45.192;5.722;2022-10-16T12:32:54;2.52;;;1.35;;
13222;SDS011;6676;45.192;5.722;2022-10-16T12:35:47;1.52;;;0.65;;
13222;SDS011;6676;45.192;5.722;2022-10-16T12:38:45;2.33;;;0.90;;
13222;SDS011;6676;45.192;5.722;2022-10-16T12:41:36;2.20;;;0.72;;
13222;SDS011;6676;45.192;5.722;2022-10-16T12:44:32;2.87;;;0.98;;
13222;SDS011;6676;45.192;5.722;2022-10-16T12:47:34;1.47;;;0.88;;
13222;SDS011;6676;45.192;5.722;2022-10-16T12:50:28;1.37;;;1.00;;
13222;SDS011;6676;45.192;5.722;2022-10-16T12:56:02;1.98;;;0.78;;
13222;SDS011;6676;45.192;5.722;2022-10-16T12:58:59;3.77;;;0.90;;
13222;SDS011;6676;45.192;5.722;2022-10-16T13:04:42;3.60;;;2.33;;
13222;SDS011;6676;45.192;5.722;2022-10-16T13:07:50;2.17;;;1.90;;
13222;SDS011;6676;45.192;5.722;2022-10-16T13:10:47;3.33;;;1.65;;
13222;SDS011;6676;45.192;5.722;2022-10-16T13:13:47;4.45;;;2.20;;
13222;SDS011;6676;45.192;5.722;2022-10-16T13:19:42;3.17;;;0.95;;
13222;SDS011;6676;45.192;5.722;2022-10-16T13:22:38;1.30;;;1.10;;
13222;SDS011;6676;45.192;5.722;2022-10-16T13:25:34;0.93;;;0.80;;
13222;SDS011;6676;45.192;5.722;2022-10-16T13:28:28;2.67;;;1.00;;
13222;SDS011;6676;45.192;5.722;2022-10-16T13:31:23;1.98;;;0.72;;
13222;SDS011;6676;45.192;5.722;2022-10-16T13:34:15;1.42;;;1.00;;
13222;SDS011;6676;45.192;5.722;2022-10-16T13:40:04;0.85;;;0.70;;
13222;SDS011;6676;45.192;5.722;2022-10-16T13:43:02;2.08;;;0.93;;
13222;SDS011;6676;45.192;5.722;2022-10-16T13:48:36;1.95;;;0.95;;
13222;SDS011;6676;45.192;5.722;2022-10-16T13:51:27;1.82;;;1.20;;
13222;SDS011;6676;45.192;5.722;2022-10-16T13:54:19;2.00;;;1.27;;
13222;SDS011;6676;45.192;5.722;2022-10-16T13:57:13;5.53;;;2.27;;
13222;SDS011;6676;45.192;5.722;2022-10-16T14:00:17;2.37;;;1.22;;
13222;SDS011;6676;45.192;5.722;2022-10-16T14:03:13;2.55;;;1.30;;
13222;SDS011;6676;45.192;5.722;2022-10-16T14:06:06;1.42;;;0.70;;
13222;SDS011;6676;45.192;5.722;2022-10-16T14:09:05;1.52;;;0.75;;
13222;SDS011;6676;45.192;5.722;2022-10-16T14:11:58;3.08;;;0.90;;
13222;SDS011;6676;45.192;5.722;2022-10-16T14:14:53;3.15;;;0.80;;
13222;SDS011;6676;45.192;5.722;2022-10-16T14:17:47;2.40;;;0.70;;
13222;SDS011;6676;45.192;5.722;2022-10-16T14:20:39;0.85;;;0.60;;
13222;SDS011;6676;45.192;5.722;2022-10-16T14:23:38;1.75;;;0.70;;
13222;SDS011;6676;45.192;5.722;2022-10-16T14:26:27;1.35;;;0.70;;
13222;SDS011;6676;45.192;5.722;2022-10-16T14:29:19;1.10;;;0.70;;
13222;SDS011;6676;45.192;5.722;2022-10-16T14:32:22;0.93;;;0.60;;
13222;SDS011;6676;45.192;5.722;2022-10-16T14:35:22;1.92;;;0.72;;
13222;SDS011;6676;45.192;5.722;2022-10-16T14:40:56;2.52;;;0.85;;
13222;SDS011;6676;45.192;5.722;2022-10-16T14:43:49;1.52;;;0.70;;
13222;SDS011;6676;45.192;5.722;2022-10-16T14:46:43;1.60;;;0.82;;
13222;SDS011;6676;45.192;5.722;2022-10-16T14:49:35;1.05;;;0.70;;
13222;SDS011;6676;45.192;5.722;2022-10-16T14:52:26;2.55;;;0.85;;
13222;SDS011;6676;45.192;5.722;2022-10-16T14:55:17;1.45;;;0.88;;
13222;SDS011;6676;45.192;5.722;2022-10-16T14:58:10;2.15;;;0.60;;
13222;SDS011;6676;45.192;5.722;2022-10-16T15:01:04;2.70;;;0.70;;
13222;SDS011;6676;45.192;5.722;2022-10-16T15:06:35;3.05;;;0.88;;
13222;SDS011;6676;45.192;5.722;2022-10-16T15:12:04;1.50;;;0.78;;
13222;SDS011;6676;45.192;5.722;2022-10-16T15:14:56;2.15;;;0.98;;
13222;SDS011;6676;45.192;5.722;2022-10-16T15:17:48;3.00;;;0.80;;
13222;SDS011;6676;45.192;5.722;2022-10-16T15:20:41;2.35;;;0.80;;
13222;SDS011;6676;45.192;5.722;2022-10-16T15:23:32;2.77;;;0.90;;
13222;SDS011;6676;45.192;5.722;2022-10-16T15:26:24;2.52;;;0.70;;
13222;SDS011;6676;45.192;5.722;2022-10-16T15:29:16;1.98;;;0.88;;
13222;SDS011;6676;45.192;5.722;2022-10-16T15:32:08;2.72;;;0.80;;
13222;SDS011;6676;45.192;5.722;2022-10-16T15:35:00;2.08;;;0.75;;
13222;SDS011;6676;45.192;5.722;2022-10-16T15:37:52;2.35;;;0.85;;
13222;SDS011;6676;45.192;5.722;2022-10-16T15:40:44;2.00;;;0.70;;
13222;SDS011;6676;45.192;5.722;2022-10-16T15:43:36;1.90;;;0.80;;
13222;SDS011;6676;45.192;5.722;2022-10-16T15:49:11;2.05;;;0.80;;
13222;SDS011;6676;45.192;5.722;2022-10-16T15:52:03;3.17;;;1.00;;
13222;SDS011;6676;45.192;5.722;2022-10-16T15:54:56;2.20;;;0.82;;
13222;SDS011;6676;45.192;5.722;2022-10-16T15:57:47;2.10;;;1.10;;
13222;SDS011;6676;45.192;5.722;2022-10-16T16:00:39;1.30;;;0.98;;
13222;SDS011;6676;45.192;5.722;2022-10-16T16:03:31;2.47;;;1.02;;
13222;SDS011;6676;45.192;5.722;2022-10-16T16:06:24;5.78;;;1.02;;
13222;SDS011;6676;45.192;5.722;2022-10-16T16:09:16;5.42;;;1.32;;
13222;SDS011;6676;45.192;5.722;2022-10-16T16:14:47;3.77;;;1.07;;
13222;SDS011;6676;45.192;5.722;2022-10-16T16:20:18;1.92;;;0.98;;
13222;SDS011;6676;45.192;5.722;2022-10-16T16:26:02;2.12;;;1.15;;
13222;SDS011;6676;45.192;5.722;2022-10-16T16:28:54;1.20;;;0.93;;
13222;SDS011;6676;45.192;5.722;2022-10-16T16:31:46;2.08;;;1.00;;
13222;SDS011;6676;45.192;5.722;2022-10-16T16:34:37;3.65;;;1.00;;
13222;SDS011;6676;45.192;5.722;2022-10-16T16:37:29;2.45;;;1.00;;
13222;SDS011;6676;45.192;5.722;2022-10-16T16:40:21;2.70;;;1.10;;
13222;SDS011;6676;45.192;5.722;2022-10-16T16:43:12;1.82;;;0.88;;
13222;SDS011;6676;45.192;5.722;2022-10-16T16:46:04;1.50;;;0.90;;
13222;SDS011;6676;45.192;5.722;2022-10-16T16:48:55;2.92;;;0.95;;
13222;SDS011;6676;45.192;5.722;2022-10-16T16:51:48;3.08;;;0.88;;
13222;SDS011;6676;45.192;5.722;2022-10-16T16:54:32;2.60;;;1.12;;
13222;SDS011;6676;45.192;5.722;2022-10-16T17:00:01;1.67;;;0.90;;
13222;SDS011;6676;45.192;5.722;2022-10-16T17:05:33;2.52;;;1.30;;
13222;SDS011;6676;45.192;5.722;2022-10-16T17:11:04;2.45;;;1.40;;
13222;SDS011;6676;45.192;5.722;2022-10-16T17:16:37;2.75;;;1.40;;
13222;SDS011;6676;45.192;5.722;2022-10-16T17:19:31;1.67;;;0.88;;
13222;SDS011;6676;45.192;5.722;2022-10-16T17:25:00;2.27;;;1.10;;
13222;SDS011;6676;45.192;5.722;2022-10-16T17:27:52;1.72;;;1.00;;
13222;SDS011;6676;45.192;5.722;2022-10-16T17:30:43;1.42;;;0.90;;
13222;SDS011;6676;45.192;5.722;2022-10-16T17:33:34;3.00;;;1.20;;
13222;SDS011;6676;45.192;5.722;2022-10-16T17:36:26;2.58;;;1.20;;
13222;SDS011;6676;45.192;5.722;2022-10-16T17:39:20;1.22;;;0.80;;
13222;SDS011;6676;45.192;5.722;2022-10-16T17:42:11;1.57;;;0.98;;
13222;SDS011;6676;45.192;5.722;2022-10-16T17:45:03;1.50;;;1.20;;
13222;SDS011;6676;45.192;5.722;2022-10-16T17:47:56;1.30;;;0.80;;
13222;SDS011;6676;45.192;5.722;2022-10-16T17:50:48;3.12;;;0.90;;
13222;SDS011;6676;45.192;5.722;2022-10-16T17:53:39;1.95;;;1.10;;
13222;SDS011;6676;45.192;5.722;2022-10-16T17:59:29;1.52;;;0.98;;
13222;SDS011;6676;45.192;5.722;2022-10-16T18:04:59;2.87;;;1.00;;
13222;SDS011;6676;45.192;5.722;2022-10-16T18:07:52;2.17;;;1.25;;
13222;SDS011;6676;45.192;5.722;2022-10-16T18:14:12;2.52;;;1.45;;
13222;SDS011;6676;45.192;5.722;2022-10-16T18:19:45;3.20;;;1.62;;
13222;SDS011;6676;45.192;5.722;2022-10-16T18:22:36;2.40;;;1.52;;
13222;SDS011;6676;45.192;5.722;2022-10-16T18:25:27;2.42;;;1.25;;
13222;SDS011;6676;45.192;5.722;2022-10-16T18:28:18;1.42;;;1.00;;
13222;SDS011;6676;45.192;5.722;2022-10-16T18:31:11;2.20;;;1.20;;
13222;SDS011;6676;45.192;5.722;2022-10-16T18:34:03;2.10;;;1.32;;
13222;SDS011;6676;45.192;5.722;2022-10-16T18:36:54;3.70;;;1.17;;
13222;SDS011;6676;45.192;5.722;2022-10-16T18:39:46;2.35;;;1.30;;
13222;SDS011;6676;45.192;5.722;2022-10-16T18:45:17;1.72;;;0.90;;
13222;SDS011;6676;45.192;5.722;2022-10-16T18:48:08;2.98;;;1.10;;
13222;SDS011;6676;45.192;5.722;2022-10-16T18:51:05;2.65;;;1.00;;
13222;SDS011;6676;45.192;5.722;2022-10-16T18:56:36;4.35;;;1.42;;
13222;SDS011;6676;45.192;5.722;2022-10-16T18:59:28;2.80;;;1.32;;
13222;SDS011;6676;45.192;5.722;2022-10-16T19:04:58;2.27;;;1.22;;
13222;SDS011;6676;45.192;5.722;2022-10-16T19:07:51;2.85;;;1.27;;
13222;SDS011;6676;45.192;5.722;2022-10-16T19:10:42;1.52;;;1.27;;
13222;SDS011;6676;45.192;5.722;2022-10-16T19:13:34;1.75;;;1.20;;
13222;SDS011;6676;45.192;5.722;2022-10-16T19:16:26;3.42;;;1.22;;
13222;SDS011;6676;45.192;5.722;2022-10-16T19:21:57;3.65;;;2.05;;
13222;SDS011;6676;45.192;5.722;2022-10-16T19:25:00;2.52;;;1.67;;
13222;SDS011;6676;45.192;5.722;2022-10-16T19:27:52;3.02;;;1.80;;
13222;SDS011;6676;45.192;5.722;2022-10-16T19:30:35;4.47;;;2.05;;
13222;SDS011;6676;45.192;5.722;2022-10-16T19:33:27;3.87;;;1.70;;